Time;durP1;ratioP1;P1;durP2;ratioP2;P2;SDS_P1;SDS_P2;PMS_P1;PMS_P2;Temp;Humidity;BMP_temperature;BMP_pressure;BME280_temperature;BME280_humidity;BME280_pressure;Samples;Min_cycle;Max_cycle;Signal;HPM_P1;HPM_P2
2022/01/18 00:00:42;;;;;;;;;;;;;;;;;;5007685;28;20026;-38
2022/01/18 00:03:07;;;;;;;3.83;2.10;;;;;;;;;;5006689;28;19928;-40
2022/01/18 00:05:33;;;;;;;2.97;2.00;;;;;;;;;;5007175;28;20037;-40
2022/01/18 00:07:58;;;;;;;3.00;1.88;;;;;;;;;;5007251;28;20018;-39
2022/01/18 00:10:27;;;;;;;3.78;2.20;;;;;;;;;;5006809;28;20025;-38
2022/01/18 00:18:05;;;;;;;2.45;2.00;;;;;;;;;;4987523;28;20120;-36
2022/01/18 00:23:18;;;;;;;2.42;1.88;;;;;;;;;;4975581;28;20065;-39
2022/01/18 00:25:48;;;;;;;2.00;1.80;;;;;;;;;;4986683;28;20493;-40
2022/01/18 00:28:14;;;;;;;1.70;1.60;;;;;;;;;;4985850;28;20034;-39
2022/01/18 00:31:27;;;;;;;1.85;1.67;;;;;;;;;;4987403;28;20491;-39
2022/01/18 00:39:10;;;;;;;1.80;1.50;;;;;;;;;;4984315;28;20049;-38
2022/01/18 00:41:36;;;;;;;2.47;1.70;;;;;;;;;;4985759;28;20030;-41
2022/01/18 00:44:02;;;;;;;1.63;1.50;;;;;;;;;;4986827;28;20022;-40
2022/01/18 00:46:27;;;;;;;2.22;1.60;;;;;;;;;;4986743;28;20460;-40
2022/01/18 00:48:55;;;;;;;2.13;1.63;;;;;;;;;;4986661;28;20097;-39
2022/01/18 00:51:21;;;;;;;1.90;1.63;;;;;;;;;;4985856;28;20422;-39
2022/01/18 00:53:47;;;;;;;2.17;1.58;;;;;;;;;;4986788;28;20058;-40
2022/01/18 00:58:39;;;;;;;1.73;1.40;;;;;;;;;;4986327;28;20030;-38
2022/01/18 01:01:04;;;;;;;1.95;1.65;;;;;;;;;;4986612;28;20046;-37
2022/01/18 01:03:30;;;;;;;2.67;2.10;;;;;;;;;;4986884;28;20030;-37
2022/01/18 01:05:56;;;;;;;2.08;1.70;;;;;;;;;;4986287;28;20113;-39
2022/01/18 01:08:21;;;;;;;3.05;2.38;;;;;;;;;;4986249;28;20029;-38
2022/01/18 01:10:49;;;;;;;1.92;1.70;;;;;;;;;;4986381;28;20034;-37
2022/01/18 01:13:14;;;;;;;2.45;2.10;;;;;;;;;;4985517;28;20120;-36
2022/01/18 01:16:03;;;;;;;2.42;1.90;;;;;;;;;;4985999;28;20041;-34
2022/01/18 01:45:04;;;;;;;4.20;1.90;;;;;;;;;;5004215;28;20025;-39
2022/01/18 01:47:37;;;;;;;2.95;1.70;;;;;;;;;;5004242;28;20037;-40
2022/01/18 01:50:04;;;;;;;2.53;1.90;;;;;;;;;;5004628;28;20105;-39
2022/01/18 01:52:30;;;;;;;3.65;1.80;;;;;;;;;;5005320;28;20615;-36
2022/01/18 01:54:55;;;;;;;2.83;2.03;;;;;;;;;;5003530;28;20097;-37
2022/01/18 01:57:21;;;;;;;3.08;1.90;;;;;;;;;;5004907;28;20172;-40
2022/01/18 01:59:46;;;;;;;2.50;1.90;;;;;;;;;;5005193;28;20128;-41
2022/01/18 02:02:12;;;;;;;1.98;1.77;;;;;;;;;;5005600;28;20030;-39
2022/01/18 02:04:38;;;;;;;3.20;2.10;;;;;;;;;;5009571;28;20038;-35
2022/01/18 02:07:03;;;;;;;4.35;2.08;;;;;;;;;;5009474;28;20034;-40
2022/01/18 02:09:29;;;;;;;2.92;1.80;;;;;;;;;;5008612;28;20018;-37
2022/01/18 02:11:58;;;;;;;2.17;1.80;;;;;;;;;;5008524;28;20091;-33
2022/01/18 02:14:25;;;;;;;2.05;1.80;;;;;;;;;;5004123;28;20498;-38
2022/01/18 02:22:19;;;;;;;3.28;1.63;;;;;;;;;;4989291;28;20045;-37
2022/01/18 02:24:44;;;;;;;2.45;1.63;;;;;;;;;;4989215;28;20038;-39
2022/01/18 02:27:10;;;;;;;2.08;1.65;;;;;;;;;;4989405;28;20033;-40
2022/01/18 02:29:36;;;;;;;1.85;1.52;;;;;;;;;;4989705;28;20034;-37
2022/01/18 02:32:01;;;;;;;2.15;1.73;;;;;;;;;;4989636;28;20057;-37
2022/01/18 02:34:27;;;;;;;1.70;1.40;;;;;;;;;;4987977;28;20508;-39
2022/01/18 02:36:57;;;;;;;1.90;1.50;;;;;;;;;;4989158;28;20031;-37
2022/01/18 02:39:24;;;;;;;2.13;1.65;;;;;;;;;;4989301;28;20022;-38
2022/01/18 02:41:55;;;;;;;1.60;1.40;;;;;;;;;;4989359;28;20035;-38
2022/01/18 02:44:20;;;;;;;6.78;1.40;;;;;;;;;;4989556;28;20460;-35
2022/01/18 02:46:46;;;;;;;2.03;1.60;;;;;;;;;;4989326;28;20088;-38
2022/01/18 02:49:11;;;;;;;1.90;1.50;;;;;;;;;;4989339;28;20026;-35
2022/01/18 02:51:37;;;;;;;1.75;1.50;;;;;;;;;;4988856;28;20504;-36
2022/01/18 02:54:07;;;;;;;1.35;1.00;;;;;;;;;;4989110;28;20038;-40
2022/01/18 02:56:35;;;;;;;3.05;1.70;;;;;;;;;;4988847;28;20053;-34
2022/01/18 03:04:40;;;;;;;1.90;1.40;;;;;;;;;;4988154;28;20041;-36
2022/01/18 03:07:06;;;;;;;1.20;1.10;;;;;;;;;;5003641;28;20033;-37
2022/01/18 03:09:31;;;;;;;1.67;1.20;;;;;;;;;;5007405;28;20765;-39
2022/01/18 03:11:57;;;;;;;1.70;1.15;;;;;;;;;;5007506;28;20034;-36
2022/01/18 03:14:23;;;;;;;1.98;1.50;;;;;;;;;;4988553;28;20037;-36
2022/01/18 03:16:48;;;;;;;1.40;1.17;;;;;;;;;;4988819;28;20070;-33
2022/01/18 03:19:14;;;;;;;1.35;1.10;;;;;;;;;;4988711;28;20026;-36
2022/01/18 03:21:40;;;;;;;1.55;1.35;;;;;;;;;;4988470;28;20105;-40
2022/01/18 03:24:13;;;;;;;1.30;1.20;;;;;;;;;;4988367;28;20030;-35
2022/01/18 03:28:04;;;;;;;;;;;;;;;;;;4989048;28;20117;-38
2022/01/18 03:29:25;;;;;;;1.90;1.30;;;;;;;;;;4988435;28;20012;-38
2022/01/18 03:31:50;;;;;;;1.30;1.20;;;;;;;;;;4988369;28;20038;-36
2022/01/18 03:34:16;;;;;;;2.10;1.25;;;;;;;;;;4987965;28;20061;-37
2022/01/18 03:36:41;;;;;;;1.55;1.02;;;;;;;;;;4988278;28;20030;-39
2022/01/18 03:39:07;;;;;;;0.95;0.85;;;;;;;;;;4986758;28;20214;-35
2022/01/18 03:41:32;;;;;;;4.75;1.10;;;;;;;;;;4987750;28;20242;-40
2022/01/18 03:43:58;;;;;;;1.77;1.20;;;;;;;;;;4988228;28;20034;-37
2022/01/18 03:46:24;;;;;;;2.28;1.00;;;;;;;;;;4987859;28;20030;-36
2022/01/18 03:48:51;;;;;;;2.30;1.50;;;;;;;;;;4987547;28;20565;-40
2022/01/18 03:51:17;;;;;;;1.00;0.80;;;;;;;;;;4987159;28;20097;-36
2022/01/18 03:53:42;;;;;;;3.38;0.90;;;;;;;;;;4987467;28;20035;-38
2022/01/18 03:56:08;;;;;;;1.17;0.90;;;;;;;;;;4987252;28;20034;-38
2022/01/18 03:58:34;;;;;;;4.45;2.50;;;;;;;;;;4987514;28;20049;-37
2022/01/18 04:00:59;;;;;;;9.38;7.30;;;;;;;;;;4987635;28;20559;-38
2022/01/18 04:03:25;;;;;;;12.80;9.52;;;;;;;;;;4987944;28;20034;-38
2022/01/18 04:05:52;;;;;;;16.05;11.68;;;;;;;;;;4987862;28;20250;-36
2022/01/18 04:08:19;;;;;;;16.73;11.95;;;;;;;;;;4987505;28;20041;-33
2022/01/18 04:10:45;;;;;;;16.70;12.70;;;;;;;;;;4987564;28;20100;-35
2022/01/18 04:13:10;;;;;;;17.23;13.10;;;;;;;;;;4987126;28;20034;-36
2022/01/18 04:15:36;;;;;;;18.38;14.13;;;;;;;;;;5002263;28;20100;-39
2022/01/18 04:18:11;;;;;;;19.50;14.57;;;;;;;;;;5006568;28;20021;-39
2022/01/18 04:26:54;;;;;;;18.13;13.73;;;;;;;;;;5006465;28;20044;-39
2022/01/18 04:28:51;;;;;;;18.88;14.52;;;;;;;;;;5006093;28;20034;-36
2022/01/18 04:31:17;;;;;;;19.77;14.48;;;;;;;;;;5006974;28;20034;-35
2022/01/18 04:33:42;;;;;;;20.00;15.50;;;;;;;;;;5005636;28;20076;-37
2022/01/18 04:36:08;;;;;;;20.75;16.13;;;;;;;;;;5005160;28;20034;-40
2022/01/18 04:38:34;;;;;;;19.10;14.68;;;;;;;;;;5006243;28;20691;-38
2022/01/18 04:41:05;;;;;;;19.50;14.32;;;;;;;;;;5006782;28;20029;-38
2022/01/18 04:44:10;;;;;;;20.40;15.45;;;;;;;;;;5006904;28;20026;-38
2022/01/18 04:49:00;;;;;;;18.58;14.55;;;;;;;;;;5006670;28;20088;-36
2022/01/18 04:51:26;;;;;;;20.33;15.18;;;;;;;;;;5006482;28;20030;-37
2022/01/18 04:53:55;;;;;;;19.48;14.30;;;;;;;;;;5005131;28;20030;-39
2022/01/18 04:59:08;;;;;;;17.33;13.13;;;;;;;;;;5003457;28;20040;-38
2022/01/18 05:01:34;;;;;;;17.92;13.60;;;;;;;;;;5005618;28;20030;-35
2022/01/18 05:03:59;;;;;;;18.13;13.75;;;;;;;;;;5006097;28;20132;-36
2022/01/18 05:06:25;;;;;;;17.42;13.65;;;;;;;;;;5005748;28;20033;-38
2022/01/18 05:08:51;;;;;;;18.02;13.43;;;;;;;;;;5006173;28;20076;-38
2022/01/18 05:11:19;;;;;;;17.90;12.13;;;;;;;;;;5006025;28;20037;-35
2022/01/18 05:21:32;;;;;;;16.00;11.60;;;;;;;;;;5006454;28;20037;-38
2022/01/18 05:23:57;;;;;;;;;;;;;;;;;;4997069;28;20058;-40
2022/01/18 05:26:24;;;;;;;17.67;11.85;;;;;;;;;;5000335;28;19945;-37
2022/01/18 05:28:50;;;;;;;17.83;11.95;;;;;;;;;;4999636;28;20037;-39
2022/01/18 05:31:15;;;;;;;17.98;11.70;;;;;;;;;;4991053;28;20037;-37
2022/01/18 05:33:42;;;;;;;16.27;11.68;;;;;;;;;;4995057;28;20132;-37
2022/01/18 05:36:08;;;;;;;20.33;11.65;;;;;;;;;;5008561;28;20033;-37
2022/01/18 05:38:35;;;;;;;17.05;11.43;;;;;;;;;;5014471;28;20054;-37
2022/01/18 05:41:01;;;;;;;18.95;11.57;;;;;;;;;;5003662;28;20095;-38
2022/01/18 05:43:27;;;;;;;20.70;11.10;;;;;;;;;;5003787;28;20101;-40
2022/01/18 05:45:52;;;;;;;21.38;10.18;;;;;;;;;;5002752;28;20692;-39
2022/01/18 05:48:18;;;;;;;15.88;7.95;;;;;;;;;;5013766;28;20045;-36
2022/01/18 05:50:44;;;;;;;15.55;8.32;;;;;;;;;;4995627;28;20042;-37
2022/01/18 05:53:09;;;;;;;20.27;8.52;;;;;;;;;;4998360;28;20061;-38
2022/01/18 05:55:35;;;;;;;12.60;7.50;;;;;;;;;;5002299;28;20030;-37
2022/01/18 05:58:00;;;;;;;16.85;7.22;;;;;;;;;;5003277;28;20403;-41
2022/01/18 06:00:27;;;;;;;11.60;7.07;;;;;;;;;;5002494;28;20030;-40
2022/01/18 06:08:05;;;;;;;9.48;6.00;;;;;;;;;;5002498;28;20121;-34
2022/01/18 06:10:31;;;;;;;9.13;5.65;;;;;;;;;;5002616;28;20030;-35
2022/01/18 06:12:56;;;;;;;8.57;5.68;;;;;;;;;;5001649;28;20625;-39
2022/01/18 06:15:22;;;;;;;9.73;5.30;;;;;;;;;;5000991;28;20041;-35
2022/01/18 06:17:47;;;;;;;7.13;5.03;;;;;;;;;;5001070;28;20602;-38
2022/01/18 06:20:13;;;;;;;7.30;5.13;;;;;;;;;;5003016;28;20371;-35
2022/01/18 06:22:39;;;;;;;6.30;4.32;;;;;;;;;;5003411;28;20030;-34
2022/01/18 06:25:05;;;;;;;6.45;4.78;;;;;;;;;;5000815;28;20905;-37
2022/01/18 06:27:34;;;;;;;8.45;4.15;;;;;;;;;;4991315;28;20041;-36
2022/01/18 06:29:59;;;;;;;10.15;4.47;;;;;;;;;;5002446;28;20038;-41
2022/01/18 06:32:24;;;;;;;8.68;5.20;;;;;;;;;;5005816;28;20029;-41
2022/01/18 06:34:50;;;;;;;12.52;5.18;;;;;;;;;;5003702;28;20037;-37
2022/01/18 06:37:16;;;;;;;7.90;4.35;;;;;;;;;;5002320;28;20030;-37
2022/01/18 06:39:41;;;;;;;8.90;4.38;;;;;;;;;;5002264;28;20022;-39
2022/01/18 06:42:10;;;;;;;10.40;4.75;;;;;;;;;;5002305;28;20799;-40
2022/01/18 06:44:36;;;;;;;5.78;4.10;;;;;;;;;;4994785;28;20595;-39
2022/01/18 06:47:01;;;;;;;7.25;4.35;;;;;;;;;;5001877;28;20029;-40
2022/01/18 06:49:27;;;;;;;7.32;4.00;;;;;;;;;;5004857;28;20418;-34
2022/01/18 06:51:52;;;;;;;6.60;3.70;;;;;;;;;;5005658;28;20038;-37
2022/01/18 06:54:18;;;;;;;7.85;4.35;;;;;;;;;;5002588;28;20120;-37
2022/01/18 06:56:49;;;;;;;5.25;3.63;;;;;;;;;;4993780;28;20731;-36
2022/01/18 06:59:14;;;;;;;5.68;4.03;;;;;;;;;;4993279;28;20559;-33
2022/01/18 07:01:40;;;;;;;10.43;4.10;;;;;;;;;;4990286;28;20083;-37
2022/01/18 07:04:06;;;;;;;9.50;4.20;;;;;;;;;;4999023;28;20091;-37
2022/01/18 07:06:32;;;;;;;7.00;3.75;;;;;;;;;;5005814;28;20033;-38
2022/01/18 07:08:58;;;;;;;6.20;3.88;;;;;;;;;;5005758;28;20021;-41
2022/01/18 07:11:23;;;;;;;5.00;3.22;;;;;;;;;;5005682;28;20030;-39
2022/01/18 07:13:49;;;;;;;8.68;3.42;;;;;;;;;;5001946;28;20898;-35
2022/01/18 07:16:14;;;;;;;8.10;3.83;;;;;;;;;;5004740;28;20026;-35
2022/01/18 07:18:40;;;;;;;7.53;3.47;;;;;;;;;;5006011;28;20030;-39
2022/01/18 07:21:05;;;;;;;8.27;4.00;;;;;;;;;;5005162;28;20034;-35
2022/01/18 07:23:31;;;;;;;7.50;3.55;;;;;;;;;;5005746;28;20029;-37
2022/01/18 07:25:56;;;;;;;5.72;3.15;;;;;;;;;;5004600;28;20025;-36
2022/01/18 07:28:22;;;;;;;8.05;3.25;;;;;;;;;;5005305;28;20033;-36
2022/01/18 07:30:48;;;;;;;4.65;3.08;;;;;;;;;;5005613;28;20026;-37
2022/01/18 07:33:14;;;;;;;6.55;3.03;;;;;;;;;;5004706;28;20049;-38
2022/01/18 07:35:39;;;;;;;4.22;2.85;;;;;;;;;;4985830;28;20049;-39
2022/01/18 07:38:05;;;;;;;4.82;3.00;;;;;;;;;;4986121;28;20045;-35
2022/01/18 07:40:32;;;;;;;6.93;3.30;;;;;;;;;;5005157;28;20029;-35
2022/01/18 07:43:00;;;;;;;6.10;3.47;;;;;;;;;;4998214;28;20066;-39
2022/01/18 07:45:29;;;;;;;5.57;2.97;;;;;;;;;;5000612;28;20029;-38
2022/01/18 07:47:55;;;;;;;3.42;2.80;;;;;;;;;;5004909;28;20037;-37
2022/01/18 07:50:20;;;;;;;4.85;2.83;;;;;;;;;;5005221;28;20026;-36
2022/01/18 07:52:46;;;;;;;4.47;2.75;;;;;;;;;;5005069;28;20045;-38
2022/01/18 07:55:11;;;;;;;6.30;3.13;;;;;;;;;;5005009;28;20030;-37
2022/01/18 07:57:42;;;;;;;4.15;2.95;;;;;;;;;;5004828;28;20025;-35
2022/01/18 08:00:09;;;;;;;6.57;2.83;;;;;;;;;;4999327;28;20030;-39
2022/01/18 08:02:36;;;;;;;7.68;2.58;;;;;;;;;;5000656;28;20080;-34
2022/01/18 08:05:05;;;;;;;5.22;3.38;;;;;;;;;;5005170;28;20065;-35
2022/01/18 08:07:31;;;;;;;4.05;2.65;;;;;;;;;;5012609;28;20037;-36
2022/01/18 08:09:57;;;;;;;4.30;2.83;;;;;;;;;;5001341;28;20084;-33
2022/01/18 08:12:23;;;;;;;4.38;2.42;;;;;;;;;;5004932;28;20034;-38
2022/01/18 08:14:50;;;;;;;6.47;2.80;;;;;;;;;;4992219;28;20770;-36
2022/01/18 08:17:15;;;;;;;4.20;2.78;;;;;;;;;;4985686;28;20026;-38
2022/01/18 08:19:41;;;;;;;6.80;2.55;;;;;;;;;;4986282;28;20033;-37
2022/01/18 08:22:07;;;;;;;7.10;2.75;;;;;;;;;;4985648;28;20057;-37
2022/01/18 08:24:32;;;;;;;4.82;2.40;;;;;;;;;;4985925;28;20039;-37
2022/01/18 08:26:58;;;;;;;5.15;2.53;;;;;;;;;;4986090;28;20035;-35
2022/01/18 08:29:23;;;;;;;3.47;2.40;;;;;;;;;;4985695;28;20045;-36
2022/01/18 08:31:49;;;;;;;10.02;2.67;;;;;;;;;;4985985;28;20033;-39
2022/01/18 08:34:14;;;;;;;5.88;2.60;;;;;;;;;;4984033;28;20086;-36
2022/01/18 08:36:40;;;;;;;7.15;2.80;;;;;;;;;;4985952;28;20483;-37
2022/01/18 08:39:07;;;;;;;8.20;2.40;;;;;;;;;;4986294;28;20770;-39
2022/01/18 08:41:32;;;;;;;4.28;2.88;;;;;;;;;;4986146;28;20030;-37
2022/01/18 08:43:58;;;;;;;4.15;2.60;;;;;;;;;;4985794;28;20103;-38
2022/01/18 08:46:23;;;;;;;5.60;2.58;;;;;;;;;;4986872;28;20339;-38
2022/01/18 08:48:49;;;;;;;3.28;2.17;;;;;;;;;;4987075;28;20456;-37
2022/01/18 08:51:15;;;;;;;3.90;2.38;;;;;;;;;;4986601;28;20026;-33
2022/01/18 08:53:40;;;;;;;5.57;2.60;;;;;;;;;;4986594;28;20050;-37
2022/01/18 08:56:06;;;;;;;4.60;2.78;;;;;;;;;;4986887;28;20120;-36
2022/01/18 08:58:33;;;;;;;3.65;2.33;;;;;;;;;;4986401;28;20460;-36
2022/01/18 09:00:58;;;;;;;3.00;2.60;;;;;;;;;;4997340;28;20025;-33
2022/01/18 09:03:24;;;;;;;3.70;3.05;;;;;;;;;;5015027;28;20595;-35
2022/01/18 09:05:51;;;;;;;7.90;2.75;;;;;;;;;;5024618;28;20026;-37
2022/01/18 09:08:18;;;;;;;3.70;3.10;;;;;;;;;;5024833;28;20147;-39
2022/01/18 09:10:46;;;;;;;4.97;3.28;;;;;;;;;;5025684;28;20033;-38
2022/01/18 09:13:12;;;;;;;5.57;3.20;;;;;;;;;;5017353;28;20050;-36
2022/01/18 09:15:37;;;;;;;3.50;2.95;;;;;;;;;;4986382;28;20058;-36
2022/01/18 09:18:03;;;;;;;4.85;2.90;;;;;;;;;;4985421;28;20130;-38
2022/01/18 09:20:29;;;;;;;7.32;3.40;;;;;;;;;;4986151;28;20125;-39
2022/01/18 09:22:54;;;;;;;5.45;3.90;;;;;;;;;;4985313;28;20038;-36
2022/01/18 09:25:25;;;;;;;8.30;5.00;;;;;;;;;;4990769;28;20065;-38
2022/01/18 09:27:51;;;;;;;8.55;5.63;;;;;;;;;;5004334;28;20036;-39
2022/01/18 09:30:17;;;;;;;8.95;5.20;;;;;;;;;;5003495;28;20041;-31
2022/01/18 09:32:43;;;;;;;7.07;5.35;;;;;;;;;;5004221;28;20026;-35
2022/01/18 09:35:09;;;;;;;9.38;5.57;;;;;;;;;;5004062;28;20614;-36
2022/01/18 09:37:34;;;;;;;6.38;5.05;;;;;;;;;;5005007;28;20512;-30
2022/01/18 09:40:00;;;;;;;7.32;5.25;;;;;;;;;;5005623;28;20068;-35
2022/01/18 09:42:33;;;;;;;10.15;5.97;;;;;;;;;;5004115;28;20358;-38
2022/01/18 09:45:13;;;;;;;7.15;5.03;;;;;;;;;;5005246;28;20105;-34
2022/01/18 09:47:39;;;;;;;7.55;6.00;;;;;;;;;;5005559;28;20022;-34
2022/01/18 09:50:06;;;;;;;7.20;5.35;;;;;;;;;;5005315;28;20076;-32
2022/01/18 09:52:32;;;;;;;7.35;5.50;;;;;;;;;;4985691;28;20424;-39
2022/01/18 09:54:57;;;;;;;6.57;4.97;;;;;;;;;;4985797;28;20022;-33
2022/01/18 09:57:23;;;;;;;5.95;4.72;;;;;;;;;;4985766;28;20026;-35
2022/01/18 09:59:48;;;;;;;7.50;5.72;;;;;;;;;;4985832;28;20034;-35
2022/01/18 10:02:14;;;;;;;8.32;5.75;;;;;;;;;;4985678;28;20030;-36
2022/01/18 10:04:40;;;;;;;7.10;5.55;;;;;;;;;;4985413;28;20038;-36
2022/01/18 10:07:06;;;;;;;7.65;5.40;;;;;;;;;;4985010;28;20034;-33
2022/01/18 10:09:31;;;;;;;6.53;5.30;;;;;;;;;;4984697;28;20061;-35
2022/01/18 10:12:03;;;;;;;7.68;5.47;;;;;;;;;;4985964;28;20031;-36
2022/01/18 10:14:32;;;;;;;7.97;5.70;;;;;;;;;;4985787;28;20034;-37
2022/01/18 10:16:58;;;;;;;7.53;5.30;;;;;;;;;;4984974;28;20560;-36
2022/01/18 10:19:36;;;;;;;6.90;5.40;;;;;;;;;;4985756;28;20166;-39
2022/01/18 10:22:08;;;;;;;6.72;5.50;;;;;;;;;;4985735;28;20034;-38
2022/01/18 10:24:34;;;;;;;6.78;5.28;;;;;;;;;;4988070;28;20042;-38
2022/01/18 10:26:59;;;;;;;6.22;5.22;;;;;;;;;;4988888;28;20033;-37
2022/01/18 10:29:31;;;;;;;7.07;4.95;;;;;;;;;;4989238;28;20528;-37
2022/01/18 10:32:07;;;;;;;6.90;4.80;;;;;;;;;;4989674;28;20500;-36
2022/01/18 10:37:08;;;;;;;6.43;4.97;;;;;;;;;;4989266;28;20030;-38
2022/01/18 10:39:53;;;;;;;6.10;4.77;;;;;;;;;;4989229;28;20518;-39
2022/01/18 10:42:28;;;;;;;6.18;4.68;;;;;;;;;;4989282;28;20273;-38
2022/01/18 10:44:59;;;;;;;5.82;4.50;;;;;;;;;;4988762;28;20042;-41
2022/01/18 10:47:25;;;;;;;5.75;4.65;;;;;;;;;;4988937;28;20046;-34
2022/01/18 10:49:50;;;;;;;5.90;4.45;;;;;;;;;;4989150;28;20035;-33
2022/01/18 10:52:28;;;;;;;6.32;4.43;;;;;;;;;;4988842;28;20034;-32
2022/01/18 10:54:55;;;;;;;4.90;4.00;;;;;;;;;;4989240;28;20102;-35
2022/01/18 10:57:27;;;;;;;6.13;4.20;;;;;;;;;;4992092;28;20022;-36
2022/01/18 11:00:03;;;;;;;6.37;4.53;;;;;;;;;;4996805;28;20037;-34
2022/01/18 11:02:33;;;;;;;5.57;4.03;;;;;;;;;;5004326;28;20557;-39
2022/01/18 11:04:58;;;;;;;5.25;4.00;;;;;;;;;;4997665;28;20492;-35
2022/01/18 11:07:27;;;;;;;5.10;3.85;;;;;;;;;;4996275;28;20030;-38
2022/01/18 11:09:54;;;;;;;5.38;3.85;;;;;;;;;;4999254;28;20022;-34
2022/01/18 11:12:22;;;;;;;5.60;4.25;;;;;;;;;;4995184;28;20036;-38
2022/01/18 11:14:59;;;;;;;6.55;3.80;;;;;;;;;;4998221;28;20370;-37
2022/01/18 11:17:26;;;;;;;4.93;4.05;;;;;;;;;;4995676;28;20030;-35
2022/01/18 11:19:54;;;;;;;7.13;3.92;;;;;;;;;;4999446;28;20189;-35
2022/01/18 11:22:20;;;;;;;4.97;3.80;;;;;;;;;;4996416;28;20575;-33
2022/01/18 11:24:47;;;;;;;6.75;4.72;;;;;;;;;;4983037;28;20087;-37
2022/01/18 11:27:14;;;;;;;7.80;5.30;;;;;;;;;;4996561;28;20539;-39
2022/01/18 11:29:40;;;;;;;8.55;5.68;;;;;;;;;;4996047;28;20125;-33
2022/01/18 11:32:06;;;;;;;7.55;5.65;;;;;;;;;;4995642;28;20058;-40
2022/01/18 11:34:44;;;;;;;10.25;6.03;;;;;;;;;;4995308;28;20705;-36
2022/01/18 11:37:17;;;;;;;33.65;13.55;;;;;;;;;;4996138;28;20144;-38
2022/01/18 11:39:43;;;;;;;53.42;22.92;;;;;;;;;;4988111;28;20034;-40
2022/01/18 11:42:11;;;;;;;78.15;31.10;;;;;;;;;;4990608;28;20029;-39
2022/01/18 11:44:37;;;;;;;70.75;32.47;;;;;;;;;;4998058;28;20428;-37
2022/01/18 11:47:03;;;;;;;90.43;35.90;;;;;;;;;;5001017;28;20033;-39
2022/01/18 11:49:31;;;;;;;84.70;37.38;;;;;;;;;;5004668;28;20037;-40
2022/01/18 11:52:07;;;;;;;89.63;40.90;;;;;;;;;;4997922;28;20029;-36
2022/01/18 11:55:13;;;;;;;86.88;40.10;;;;;;;;;;4996125;28;20091;-40
2022/01/18 11:57:31;;;;;;;93.38;43.22;;;;;;;;;;5005551;28;20479;-36
2022/01/18 11:59:58;;;;;;;96.28;45.33;;;;;;;;;;5004688;28;20034;-41
2022/01/18 12:02:35;;;;;;;96.75;45.28;;;;;;;;;;5004980;28;20041;-41
2022/01/18 12:05:11;;;;;;;94.55;45.63;;;;;;;;;;5005200;28;20061;-39
2022/01/18 12:07:37;;;;;;;92.90;43.83;;;;;;;;;;5005233;28;20026;-36
2022/01/18 12:10:21;;;;;;;93.85;45.28;;;;;;;;;;5001890;28;20108;-38
2022/01/18 12:12:46;;;;;;;89.85;45.67;;;;;;;;;;5003332;28;20120;-41
2022/01/18 12:15:15;;;;;;;91.68;46.65;;;;;;;;;;4985247;28;20125;-40
2022/01/18 12:17:51;;;;;;;89.40;45.63;;;;;;;;;;4985662;28;20034;-39
2022/01/18 12:20:32;;;;;;;96.70;47.70;;;;;;;;;;4984791;28;20022;-41
2022/01/18 12:23:27;;;;;;;89.55;47.10;;;;;;;;;;4985347;28;20049;-35
2022/01/18 12:26:02;;;;;;;87.18;45.22;;;;;;;;;;4984855;28;20855;-37
2022/01/18 12:29:18;;;;;;;88.80;44.40;;;;;;;;;;4984992;28;20053;-41
2022/01/18 12:34:31;;;;;;;83.07;42.47;;;;;;;;;;4984659;28;20046;-35
2022/01/18 12:37:17;;;;;;;80.80;42.88;;;;;;;;;;4984943;28;20045;-40
2022/01/18 12:45:08;;;;;;;72.20;38.40;;;;;;;;;;4985007;28;20493;-37
2022/01/18 12:47:59;;;;;;;67.95;38.70;;;;;;;;;;4982602;28;20595;-37
2022/01/18 12:50:37;;;;;;;73.50;39.88;;;;;;;;;;4983894;28;20140;-39
2022/01/18 12:53:13;;;;;;;75.70;39.88;;;;;;;;;;4989762;28;20033;-38
2022/01/18 12:55:46;;;;;;;73.97;38.88;;;;;;;;;;4987810;28;20022;-38
2022/01/18 12:58:18;;;;;;;72.43;39.33;;;;;;;;;;4983750;28;20611;-41
2022/01/18 13:00:47;;;;;;;69.60;38.13;;;;;;;;;;4984293;28;20650;-36
2022/01/18 13:03:27;;;;;;;70.55;38.67;;;;;;;;;;5004010;28;20041;-40
2022/01/18 13:05:55;;;;;;;70.32;38.58;;;;;;;;;;5003903;28;20078;-38
2022/01/18 13:08:22;;;;;;;78.15;44.70;;;;;;;;;;5001856;28;20033;-36
2022/01/18 13:10:51;;;;;;;77.75;42.50;;;;;;;;;;5002748;28;20032;-35
2022/01/18 13:13:20;;;;;;;68.15;40.28;;;;;;;;;;4997842;28;20065;-35
2022/01/18 13:26:39;;;;;;;63.17;35.13;;;;;;;;;;4983678;28;20034;-37
2022/01/18 13:29:22;;;;;;;66.57;36.03;;;;;;;;;;4983920;28;20046;-33
2022/01/18 13:32:11;;;;;;;55.38;32.63;;;;;;;;;;4987526;28;20401;-40
2022/01/18 13:34:38;;;;;;;60.05;34.58;;;;;;;;;;5003233;28;20120;-35
2022/01/18 13:37:06;;;;;;;50.58;29.23;;;;;;;;;;5001951;28;20041;-35
2022/01/18 13:39:44;;;;;;;63.40;35.85;;;;;;;;;;5003128;28;20029;-35
2022/01/18 13:42:10;;;;;;;59.50;33.70;;;;;;;;;;4990652;28;20026;-37
2022/01/18 13:44:36;;;;;;;57.35;34.40;;;;;;;;;;4983887;28;20530;-37
2022/01/18 13:47:19;;;;;;;62.22;35.78;;;;;;;;;;4982240;28;20065;-37
2022/01/18 13:49:44;;;;;;;56.83;35.15;;;;;;;;;;4983620;28;20578;-39
2022/01/18 13:52:11;;;;;;;53.67;33.15;;;;;;;;;;4983523;28;20030;-39
2022/01/18 13:54:49;;;;;;;57.63;34.42;;;;;;;;;;4983295;28;20026;-39
2022/01/18 13:57:15;;;;;;;54.08;33.42;;;;;;;;;;4983856;28;20136;-38
2022/01/18 13:59:40;;;;;;;53.88;33.25;;;;;;;;;;4987972;28;20032;-36
2022/01/18 14:02:12;;;;;;;53.95;32.45;;;;;;;;;;5003183;28;20250;-36
2022/01/18 14:04:38;;;;;;;58.10;34.55;;;;;;;;;;4990584;28;20788;-39
2022/01/18 14:07:04;;;;;;;51.90;31.05;;;;;;;;;;4984717;28;20188;-38
2022/01/18 14:09:30;;;;;;;50.47;30.70;;;;;;;;;;4990016;28;20034;-38
2022/01/18 14:11:56;;;;;;;52.38;32.15;;;;;;;;;;4997385;28;20144;-40
2022/01/18 14:14:24;;;;;;;51.15;30.92;;;;;;;;;;4994688;28;20034;-39
2022/01/18 14:16:51;;;;;;;51.80;30.75;;;;;;;;;;4990906;28;20101;-39
2022/01/18 14:19:30;;;;;;;47.20;29.63;;;;;;;;;;4993472;28;20543;-39
2022/01/18 14:22:11;;;;;;;49.40;30.05;;;;;;;;;;4991348;28;20804;-37
2022/01/18 14:24:39;;;;;;;47.80;29.80;;;;;;;;;;4993235;28;20039;-36
2022/01/18 14:27:28;;;;;;;49.78;30.95;;;;;;;;;;4986861;28;20046;-34
2022/01/18 14:30:03;;;;;;;46.00;29.63;;;;;;;;;;4988239;28;20022;-34
2022/01/18 14:32:34;;;;;;;49.50;29.55;;;;;;;;;;4995306;28;20032;-39
2022/01/18 14:35:07;;;;;;;47.20;29.13;;;;;;;;;;4985231;28;20030;-38
2022/01/18 14:37:36;;;;;;;44.92;28.98;;;;;;;;;;4995878;28;20026;-40
2022/01/18 14:40:11;;;;;;;49.45;30.02;;;;;;;;;;4996512;28;20032;-31
2022/01/18 14:42:43;;;;;;;45.35;27.90;;;;;;;;;;4991294;28;20058;-35
2022/01/18 14:47:43;;;;;;;44.75;28.13;;;;;;;;;;4999275;28;20113;-38
2022/01/18 14:50:16;;;;;;;42.83;26.13;;;;;;;;;;4988144;28;20849;-36
2022/01/18 14:52:44;;;;;;;;;;;;;;;;;;4990764;28;20575;-38
2022/01/18 14:55:09;;;;;;;42.95;26.98;;;;;;;;;;4992028;28;19924;-34
2022/01/18 14:57:35;;;;;;;45.03;26.65;;;;;;;;;;4984652;28;20101;-38
2022/01/18 15:00:03;;;;;;;46.60;28.38;;;;;;;;;;4988672;28;20101;-34
2022/01/18 15:02:30;;;;;;;44.10;27.05;;;;;;;;;;5008854;28;20022;-39
2022/01/18 15:04:56;;;;;;;43.88;26.23;;;;;;;;;;4997153;28;20029;-37
2022/01/18 15:07:21;;;;;;;33.72;22.13;;;;;;;;;;5008831;28;20026;-34
2022/01/18 15:09:47;;;;;;;32.10;19.45;;;;;;;;;;4990066;28;20018;-37
2022/01/18 15:12:12;;;;;;;34.97;20.48;;;;;;;;;;4988103;28;20026;-40
2022/01/18 15:14:38;;;;;;;39.33;22.23;;;;;;;;;;4999228;28;20102;-38
2022/01/18 15:17:03;;;;;;;40.10;22.00;;;;;;;;;;5003797;28;20034;-37
2022/01/18 15:19:30;;;;;;;36.92;21.23;;;;;;;;;;5000010;28;20518;-39
2022/01/18 15:21:55;;;;;;;33.17;20.85;;;;;;;;;;4991929;28;20030;-38
2022/01/18 15:24:21;;;;;;;37.40;20.85;;;;;;;;;;4992755;28;20021;-37
2022/01/18 15:26:46;;;;;;;38.03;20.85;;;;;;;;;;4990465;28;20030;-37
2022/01/18 15:29:12;;;;;;;36.40;20.88;;;;;;;;;;4999150;28;20674;-41
2022/01/18 15:31:38;;;;;;;36.00;20.95;;;;;;;;;;5001542;28;20053;-36
2022/01/18 15:34:03;;;;;;;30.58;20.33;;;;;;;;;;5004694;28;20046;-41
2022/01/18 15:36:29;;;;;;;39.05;21.27;;;;;;;;;;5004932;28;20125;-37
2022/01/18 15:38:54;;;;;;;33.30;20.48;;;;;;;;;;5003158;28;20046;-40
2022/01/18 15:41:20;;;;;;;31.70;19.40;;;;;;;;;;5003573;28;20037;-39
2022/01/18 15:43:46;;;;;;;32.85;20.00;;;;;;;;;;5003846;28;20040;-40
2022/01/18 15:46:11;;;;;;;30.98;20.33;;;;;;;;;;5002804;28;20034;-39
2022/01/18 15:48:37;;;;;;;30.02;17.20;;;;;;;;;;5001397;28;20026;-39
2022/01/18 15:51:03;;;;;;;28.40;17.92;;;;;;;;;;5005638;28;20065;-36
2022/01/18 15:53:29;;;;;;;30.42;18.48;;;;;;;;;;5005272;28;20053;-39
2022/01/18 15:55:54;;;;;;;30.00;18.67;;;;;;;;;;5009849;28;20041;-39
2022/01/18 15:58:20;;;;;;;32.58;18.38;;;;;;;;;;5024466;28;20040;-38
2022/01/18 16:00:47;;;;;;;28.83;17.40;;;;;;;;;;5024702;28;20048;-41
2022/01/18 16:03:15;;;;;;;27.75;17.10;;;;;;;;;;5015951;28;20029;-40
2022/01/18 16:05:40;;;;;;;24.83;15.85;;;;;;;;;;5004309;28;20044;-36
2022/01/18 16:08:06;;;;;;;32.15;16.65;;;;;;;;;;5003253;28;20201;-38
2022/01/18 16:10:32;;;;;;;29.10;16.00;;;;;;;;;;5004394;28;20763;-39
2022/01/18 16:12:58;;;;;;;32.30;16.70;;;;;;;;;;5003987;28;20084;-38
2022/01/18 16:15:23;;;;;;;32.08;16.23;;;;;;;;;;5005004;28;20022;-34
2022/01/18 16:17:49;;;;;;;41.80;19.90;;;;;;;;;;5004940;28;20030;-36
2022/01/18 16:20:14;;;;;;;34.05;17.42;;;;;;;;;;5004863;28;20038;-39